RJTT/HND METAR and TAF weather

Enter ICAO airport designator
Station Type Date Time Source
RJTT METAR 2019/10/21 05:00 UTC NOAA

RJTT 210500Z 04012KT 9999 FEW025 BKN060 BKN190 20/15 Q1018 NOSIG


Station Type Date Time Source
RJTT Decoded METAR 2019/10/21 05:00 UTC NOAA

Tokyo International Airport, Japan (RJTT) 35-33N 139-47E 8M
Oct 21, 2019 - 01:00 AM EDT / 2019.10.21 0500 UTC
Wind: from the NE (040 degrees) at 14 MPH (12 KT):0
Visibility: greater than 7 mile(s):0
Sky conditions: mostly cloudy
Temperature: 68 F (20 C)
Dew Point: 59 F (15 C)
Relative Humidity: 72%
Pressure (altimeter): 30.06 in. Hg (1018 hPa)
ob: RJTT 210500Z 04012KT 9999 FEW025 BKN060 BKN190 20/15 Q1018 NOSIG
cycle: 5

Station Type Date Time Source
RJTT TAF 2019/10/21 06:30 UTC NOAA

TAF TAF RJTT 210505Z 2106/2212 03016KT 9000 FEW010 BKN020
TEMPO 2115/2118 4000 SHRA BR FEW005 BKN008
TEMPO 2118/2200 3000 SHRA BR FEW005 BKN008
TEMPO 2200/2203 4000 -SHRA BR FEW005 BKN008

Example: see airport list